»·PEaware :: FFT2164 KLAX-KLAS

FFT2164 :: KLAX-KLAS

FLIGHT INFORMATION

Flight Status: Arrived
Operator:
Frontier Airlines
More flights by this operator :: More flights under this callsign
Pilot: Luc P. (3613)
Aircraft: AIRBUS A321
(A321)
More flights by this aircraft type
Origin: KLAX Los Angeles Intl
United States
Destination: KLAS McCarran Intl
United States
More flights between these airports :: More routes between these airports
Route: ORCKA5 MISEN KEPEC6
File this flight plan on PilotEdge
Remarks:
Altitude:
(Current/Filed)
27,000ft
Speed:
(Current/Filed)
419kts
Departed: 04-Jan-21 08:26 PM
Arrived: 04-Jan-21 09:12 PM
Distance/Time
Traveled:
206nm/0:46
Distance/Time
To Go:
Arrived

Flight Plot

Page will automatically refresh every two minutes.

Flight plan parsing failed; only flown route is shown


Map Options




Map Legend


Flown Route
Filed Route
Departure Airport
Arrival Airport
Navaid (VOR, NDB)
Fix

Horizontal Profiles

Position Reports

Time Latitude Longitude Heading Altitude Ground
Speed
04-Jan-21 20:06 33.941505 -118.405058 83 128ft 0kts
04-Jan-21 20:07 33.941505 -118.405058 83 128ft 0kts
04-Jan-21 20:08 33.941505 -118.405058 83 128ft 0kts
04-Jan-21 20:09 33.941505 -118.405058 83 128ft 0kts
04-Jan-21 20:10 33.941505 -118.405058 83 128ft 0kts
04-Jan-21 20:11 33.941505 -118.405058 83 128ft 0kts
04-Jan-21 20:12 33.941505 -118.405058 83 128ft 0kts
04-Jan-21 20:13 33.941505 -118.405058 83 128ft 0kts
04-Jan-21 20:14 33.941500 -118.405115 83 128ft 2kts
04-Jan-21 20:15 33.941573 -118.405712 171 129ft 1kts
04-Jan-21 20:16 33.941368 -118.405663 172 129ft 0kts
04-Jan-21 20:17 33.941368 -118.405663 172 129ft 0kts
04-Jan-21 20:18 33.941012 -118.405616 174 129ft 4kts
04-Jan-21 20:19 33.939545 -118.405407 173 129ft 9kts
04-Jan-21 20:20 33.938459 -118.403110 82 126ft 14kts
04-Jan-21 20:21 33.939087 -118.396998 83 118ft 21kts
04-Jan-21 20:22 33.939882 -118.389243 83 109ft 24kts
04-Jan-21 20:23 33.940615 -118.381985 83 105ft 13kts
04-Jan-21 20:24 33.939817 -118.380360 264 105ft 10kts
04-Jan-21 20:25 33.936383 -118.415264 263 1085ft 162kts
04-Jan-21 20:26 33.928703 -118.472714 248 3206ft 198kts
04-Jan-21 20:27 33.896780 -118.539858 210 5087ft 273kts
04-Jan-21 20:28 33.833684 -118.508707 102 8115ft 284kts
04-Jan-21 20:29 33.873006 -118.441786 2 10646ft 283kts
04-Jan-21 20:30 33.949828 -118.404521 50 12697ft 344kts
04-Jan-21 20:31 34.004938 -118.305656 51 15102ft 364kts
04-Jan-21 20:32 34.063694 -118.202057 52 17222ft 384kts
04-Jan-21 20:33 34.125417 -118.093029 53 19226ft 401kts
04-Jan-21 20:34 34.189624 -117.979330 53 21074ft 416kts
04-Jan-21 20:35 34.255928 -117.861212 54 22738ft 432kts
04-Jan-21 20:36 34.324558 -117.738489 54 24327ft 445kts
04-Jan-21 20:37 34.397025 -117.613692 52 25828ft 457kts
04-Jan-21 20:38 34.473083 -117.486855 53 27161ft 469kts
04-Jan-21 20:39 34.549491 -117.358294 53 27199ft 470kts
04-Jan-21 20:40 34.625984 -117.228586 53 27202ft 470kts
04-Jan-21 20:41 34.702145 -117.099365 54 27204ft 469kts
04-Jan-21 20:42 34.778666 -116.969091 54 27197ft 471kts
04-Jan-21 20:43 34.854935 -116.838848 54 27173ft 472kts
04-Jan-21 20:44 34.929873 -116.710099 54 25515ft 459kts
04-Jan-21 20:45 35.001155 -116.583650 54 24145ft 449kts
04-Jan-21 20:46 35.072015 -116.457790 54 24137ft 450kts
04-Jan-21 20:47 35.152095 -116.340907 43 23034ft 449kts
04-Jan-21 20:48 35.237980 -116.233944 43 21565ft 430kts
04-Jan-21 20:49 35.320987 -116.129645 43 20357ft 424kts
04-Jan-21 20:50 35.402029 -116.027432 42 18561ft 411kts
04-Jan-21 20:51 35.480444 -115.928198 42 16741ft 400kts
04-Jan-21 20:53 35.556498 -115.831629 42 14954ft 386kts
04-Jan-21 20:54 35.629461 -115.738720 42 13242ft 371kts
04-Jan-21 20:55 35.695492 -115.654344 41 12986ft 314kts
04-Jan-21 20:56 35.755958 -115.581172 21 12972ft 293kts
04-Jan-21 20:57 35.832375 -115.571099 355 12988ft 277kts
04-Jan-21 20:58 35.909477 -115.567065 355 12988ft 277kts
04-Jan-21 20:59 35.980742 -115.536796 58 12695ft 308kts
04-Jan-21 21:00 36.011443 -115.437335 67 11110ft 315kts
04-Jan-21 21:01 36.029181 -115.338273 97 10278ft 282kts
04-Jan-21 21:02 36.021345 -115.241558 97 9121ft 267kts
04-Jan-21 21:03 36.014988 -115.151466 96 7591ft 257kts
04-Jan-21 21:04 36.009354 -115.067336 96 6886ft 231kts
04-Jan-21 21:05 36.004738 -114.989308 96 5990ft 216kts
04-Jan-21 21:06 36.026970 -114.933619 7 5022ft 207kts
04-Jan-21 21:07 36.071165 -114.953667 281 4454ft 161kts
04-Jan-21 21:07 36.074076 -114.998854 267 3987ft 155kts
04-Jan-21 21:09 36.073714 -115.060230 267 3195ft 153kts
04-Jan-21 21:10 36.073719 -115.111618 269 2316ft 147kts
04-Jan-21 21:10 36.073638 -115.146526 270 2108ft 57kts
04-Jan-21 21:12 36.074798 -115.155327 299 2137ft 10kts
04-Jan-21 21:12 36.076638 -115.157766 313 2143ft 12kts
04-Jan-21 21:13 36.078037 -115.157246 92 2140ft 12kts
04-Jan-21 21:14 36.078037 -115.151366 90 2120ft 20kts
04-Jan-21 21:15 36.077556 -115.143681 93 2095ft 24kts
04-Jan-21 21:16 36.077535 -115.135491 90 2071ft 20kts
04-Jan-21 21:17 36.079640 -115.133746 358 2067ft 12kts
04-Jan-21 21:18 36.083092 -115.133748 359 2066ft 11kts
04-Jan-21 21:19 36.083672 -115.135241 209 2069ft 5kts
04-Jan-21 21:20 36.083423 -115.135404 208 2070ft 0kts
04-Jan-21 21:21 36.083423 -115.135404 208 2070ft 0kts
04-Jan-21 21:22 36.083423 -115.135404 208 2070ft 0kts
04-Jan-21 21:23 36.083423 -115.135404 208 2070ft 0kts
04-Jan-21 21:24 36.083423 -115.135404 208 2070ft 0kts
04-Jan-21 21:25 36.083423 -115.135404 208 2070ft 0kts

Navigation Log

Ident Type
Flight plan parsing failed, navigation log unavailable